Time;durP1;ratioP1;P1;durP2;ratioP2;P2;SDS_P1;SDS_P2;PMS_P1;PMS_P2;Temp;Humidity;BMP_temperature;BMP_pressure;BME280_temperature;BME280_humidity;BME280_pressure;Samples;Min_cycle;Max_cycle;Signal;HPM_P1;HPM_P2
2022/12/05 00:01:34;;;;;;;27.42;14.98;;;;;;;10.30;100.00;101008.75;4931726;29;20054;-75
2022/12/05 00:04:05;;;;;;;25.58;13.35;;;;;;;10.19;100.00;101013.38;4934856;29;20048;-78
2022/12/05 00:06:36;;;;;;;23.17;13.05;;;;;;;10.15;100.00;101027.84;4935382;29;20051;-77
2022/12/05 00:09:05;;;;;;;26.70;14.10;;;;;;;10.25;100.00;101027.88;4934760;29;20056;-78
2022/12/05 00:11:37;;;;;;;26.38;14.23;;;;;;;10.15;100.00;101011.41;4935240;29;20048;-78
2022/12/05 00:14:07;;;;;;;25.25;13.05;;;;;;;10.12;100.00;101023.72;4934834;29;20066;-78
2022/12/05 00:16:37;;;;;;;23.45;13.05;;;;;;;10.14;100.00;101028.94;4933098;29;20058;-78
2022/12/05 00:19:07;;;;;;;25.73;13.65;;;;;;;10.25;100.00;101032.53;4934485;29;20047;-78
2022/12/05 00:21:36;;;;;;;25.48;13.43;;;;;;;10.28;100.00;101048.41;4935095;29;20396;-78
2022/12/05 00:24:06;;;;;;;23.15;12.63;;;;;;;10.33;100.00;101045.72;4934862;29;20063;-78
2022/12/05 00:26:35;;;;;;;24.75;13.93;;;;;;;10.42;100.00;101048.75;4932780;29;20040;-75
2022/12/05 00:29:03;;;;;;;24.05;13.38;;;;;;;10.37;100.00;101046.84;4933947;29;20051;-75
2022/12/05 00:31:31;;;;;;;23.67;13.48;;;;;;;10.24;100.00;101052.75;4932786;29;20047;-75
2022/12/05 00:34:00;;;;;;;24.35;13.25;;;;;;;10.24;100.00;101059.06;4935195;29;20502;-76
2022/12/05 00:36:31;;;;;;;25.58;13.65;;;;;;;10.25;100.00;101060.72;4935144;29;20047;-75
2022/12/05 00:39:02;;;;;;;24.20;14.10;;;;;;;10.22;100.00;101048.38;4933669;29;20281;-76
2022/12/05 00:41:31;;;;;;;26.75;13.73;;;;;;;10.11;100.00;101054.88;4933999;29;20052;-76
2022/12/05 00:44:00;;;;;;;23.85;13.55;;;;;;;9.97;100.00;101045.53;4933746;29;20040;-76
2022/12/05 00:46:30;;;;;;;24.10;13.15;;;;;;;10.05;100.00;101045.84;4934795;29;20044;-76
2022/12/05 00:49:00;;;;;;;21.35;12.98;;;;;;;10.03;100.00;101042.53;4934406;29;20044;-76
2022/12/05 00:51:35;;;;;;;26.30;14.40;;;;;;;10.10;100.00;101045.03;4933414;29;20503;-77
2022/12/05 00:54:06;;;;;;;21.17;12.43;;;;;;;10.05;100.00;101047.75;4934777;29;20048;-79
2022/12/05 00:56:35;;;;;;;22.20;13.27;;;;;;;10.15;100.00;101039.59;4933741;29;20047;-77
2022/12/05 00:59:04;;;;;;;24.42;13.25;;;;;;;10.24;100.00;101030.88;4934091;29;20491;-76
2022/12/05 01:01:38;;;;;;;23.25;13.18;;;;;;;10.10;100.00;101025.91;4933615;29;20060;-76
2022/12/05 01:04:11;;;;;;;21.27;13.18;;;;;;;9.99;100.00;101026.94;4932222;29;20048;-77
2022/12/05 01:06:40;;;;;;;21.67;13.00;;;;;;;9.99;100.00;101024.19;4933809;29;20051;-77
2022/12/05 01:09:11;;;;;;;22.63;12.80;;;;;;;10.07;100.00;101015.50;4931547;29;20039;-76
2022/12/05 01:11:40;;;;;;;21.90;12.65;;;;;;;10.13;100.00;101017.19;4934893;29;20047;-77
2022/12/05 01:14:10;;;;;;;21.42;13.20;;;;;;;10.14;100.00;101007.88;4934123;29;20054;-76
2022/12/05 01:16:40;;;;;;;23.20;14.30;;;;;;;10.22;100.00;101012.03;4936860;29;20056;-77
2022/12/05 01:19:13;;;;;;;20.10;12.80;;;;;;;10.16;100.00;101005.69;4937584;29;20051;-76
2022/12/05 01:21:42;;;;;;;23.38;13.90;;;;;;;10.11;100.00;101010.34;4937673;29;20056;-77
2022/12/05 01:24:11;;;;;;;23.65;14.05;;;;;;;10.18;100.00;101006.25;4938264;29;20372;-77
2022/12/05 01:26:41;;;;;;;23.48;13.63;;;;;;;10.28;100.00;101004.66;4938211;29;20376;-77
2022/12/05 01:29:10;;;;;;;24.10;13.55;;;;;;;10.25;100.00;100991.50;4937099;29;20051;-77
2022/12/05 01:31:39;;;;;;;19.73;12.77;;;;;;;10.13;100.00;101003.50;4937955;29;20052;-77
2022/12/05 01:34:11;;;;;;;20.73;12.13;;;;;;;10.04;100.00;100986.78;4936702;29;20055;-76
2022/12/05 01:36:40;;;;;;;17.95;11.13;;;;;;;10.04;100.00;100992.25;4927936;29;20414;-77
2022/12/05 01:39:09;;;;;;;21.08;11.35;;;;;;;10.01;100.00;100992.78;4937038;29;20051;-77
2022/12/05 01:41:45;;;;;;;18.17;10.40;;;;;;;10.00;100.00;100990.28;4937112;29;20067;-78
2022/12/05 01:44:13;;;;;;;17.83;10.98;;;;;;;10.07;100.00;100994.44;4937413;29;20048;-75
2022/12/05 01:46:47;;;;;;;17.65;10.88;;;;;;;10.11;100.00;100997.47;4937303;29;20056;-77
2022/12/05 01:49:32;;;;;;;17.85;10.85;;;;;;;10.20;100.00;100998.59;4937368;29;20052;-77
2022/12/05 01:52:06;;;;;;;16.90;10.70;;;;;;;10.19;100.00;100990.66;4935531;29;20242;-77
2022/12/05 01:54:36;;;;;;;14.20;9.77;;;;;;;10.22;100.00;100990.94;4930047;29;20056;-77
2022/12/05 01:57:10;;;;;;;15.90;10.20;;;;;;;10.25;100.00;100988.75;4937836;29;20507;-77
2022/12/05 01:59:44;;;;;;;12.63;8.25;;;;;;;10.24;100.00;100989.84;4935710;29;20399;-77
2022/12/05 02:02:12;;;;;;;14.48;9.23;;;;;;;10.25;100.00;100986.84;4937380;29;20403;-77
2022/12/05 02:05:08;;;;;;;14.15;9.48;;;;;;;10.24;100.00;100987.97;4922170;29;20052;-77
2022/12/05 02:07:39;;;;;;;15.25;10.13;;;;;;;10.22;100.00;100992.88;4936293;29;20506;-77
2022/12/05 02:10:08;;;;;;;16.17;10.15;;;;;;;10.14;100.00;100999.69;4936732;29;20058;-77
2022/12/05 02:12:37;;;;;;;15.13;10.13;;;;;;;10.15;100.00;100990.38;4937508;29;20051;-77
2022/12/05 02:15:21;;;;;;;16.35;9.65;;;;;;;10.21;100.00;100994.78;4937414;29;20044;-77
2022/12/05 02:18:13;;;;;;;15.80;10.63;;;;;;;10.12;100.00;100981.88;4937484;29;20491;-77
2022/12/05 02:20:53;;;;;;;15.88;10.45;;;;;;;10.16;100.00;100981.09;4929394;29;20215;-77
2022/12/05 02:23:44;;;;;;;15.98;9.93;;;;;;;9.90;100.00;100991.06;4937179;29;20058;-76
2022/12/05 02:26:51;;;;;;;15.48;9.88;;;;;;;10.05;100.00;100993.06;4935481;29;20082;-77
2022/12/05 02:29:56;;;;;;;17.42;10.15;;;;;;;10.07;100.00;100990.91;4929957;29;20048;-76
2022/12/05 02:32:57;;;;;;;15.35;9.77;;;;;;;10.15;100.00;100987.66;4935728;29;20063;-77
2022/12/05 02:35:36;;;;;;;18.08;10.98;;;;;;;10.25;100.00;100991.50;4935263;29;20059;-77
2022/12/05 02:38:07;;;;;;;17.77;10.75;;;;;;;10.28;100.00;101000.00;4934744;29;20043;-76
2022/12/05 02:40:42;;;;;;;16.40;10.75;;;;;;;10.24;100.00;101003.53;4936092;29;20050;-77
2022/12/05 02:43:13;;;;;;;16.38;10.05;;;;;;;10.23;100.00;101002.72;4936402;29;20036;-77
2022/12/05 02:45:45;;;;;;;17.27;10.32;;;;;;;10.16;100.00;101007.63;4936211;29;20059;-77
2022/12/05 02:48:16;;;;;;;16.17;10.10;;;;;;;10.22;100.00;101001.88;4935743;29;20052;-77
2022/12/05 02:50:48;;;;;;;16.52;10.52;;;;;;;10.26;100.00;101015.03;4935695;29;20056;-77
2022/12/05 02:53:18;;;;;;;17.08;10.35;;;;;;;10.22;100.00;101007.34;4936460;29;20047;-77
2022/12/05 02:55:47;;;;;;;18.15;10.55;;;;;;;10.13;100.00;100995.31;4936026;29;20048;-77
2022/12/05 02:58:21;;;;;;;17.40;10.70;;;;;;;10.10;100.00;101004.03;4936544;29;20040;-77
2022/12/05 03:00:54;;;;;;;16.35;10.10;;;;;;;10.09;100.00;100997.72;4935284;29;20052;-76
2022/12/05 03:03:23;;;;;;;17.65;11.55;;;;;;;10.16;100.00;101005.69;4935814;29;20044;-77
2022/12/05 03:06:08;;;;;;;16.92;10.35;;;;;;;10.07;100.00;101002.66;4936312;29;20059;-77
2022/12/05 03:08:43;;;;;;;19.92;11.13;;;;;;;10.09;100.00;101003.19;4935924;29;20052;-77
2022/12/05 03:11:12;;;;;;;17.30;10.23;;;;;;;9.99;100.00;101007.78;4930703;29;20051;-77
2022/12/05 03:13:53;;;;;;;18.80;10.70;;;;;;;9.92;100.00;101005.31;4934807;29;20048;-77
2022/12/05 03:16:46;;;;;;;17.67;10.68;;;;;;;10.11;100.00;100994.72;4935946;29;20398;-77
2022/12/05 03:19:20;;;;;;;17.67;10.65;;;;;;;10.18;100.00;100994.50;4935550;29;20042;-77
2022/12/05 03:21:54;;;;;;;18.90;11.13;;;;;;;10.24;100.00;100998.91;4929137;29;20071;-77
2022/12/05 03:24:22;;;;;;;16.08;9.80;;;;;;;10.18;100.00;100995.31;4935925;29;20052;-77
2022/12/05 03:27:08;;;;;;;16.92;10.63;;;;;;;10.15;100.00;101005.94;4936144;29;20054;-77
2022/12/05 03:29:49;;;;;;;16.92;11.13;;;;;;;10.19;100.00;101016.13;4934291;29;20395;-76
2022/12/05 03:32:40;;;;;;;16.08;10.50;;;;;;;10.07;100.00;101001.84;4933812;29;20043;-77
2022/12/05 03:35:13;;;;;;;18.25;12.32;;;;;;;10.20;100.00;101009.56;4935124;29;20403;-77
2022/12/05 03:37:47;;;;;;;16.98;10.73;;;;;;;10.05;100.00;101004.84;4935595;29;20048;-77
2022/12/05 03:40:39;;;;;;;16.77;10.23;;;;;;;10.09;100.00;101007.84;4922665;29;20411;-77
2022/12/05 03:43:19;;;;;;;13.75;9.32;;;;;;;10.13;100.00;101008.97;4935540;29;20055;-77
2022/12/05 03:45:59;;;;;;;16.38;10.25;;;;;;;10.19;100.00;101013.38;4934411;29;20055;-77
2022/12/05 03:48:36;;;;;;;16.13;10.52;;;;;;;10.22;100.00;101017.50;4935834;29;20055;-77
2022/12/05 03:51:09;;;;;;;17.67;10.85;;;;;;;10.17;100.00;101007.34;4934496;29;20047;-77
2022/12/05 03:53:46;;;;;;;15.23;10.07;;;;;;;10.09;100.00;101007.84;4933575;29;20055;-77
2022/12/05 03:56:23;;;;;;;17.17;10.48;;;;;;;10.08;100.00;101008.94;4920556;29;20050;-77
2022/12/05 03:59:31;;;;;;;14.90;9.63;;;;;;;10.14;100.00;101007.88;4935639;29;20059;-77
2022/12/05 04:02:06;;;;;;;15.13;10.75;;;;;;;10.19;100.00;101018.84;4923672;29;20508;-77
2022/12/05 04:04:41;;;;;;;15.77;9.77;;;;;;;10.13;100.00;101016.34;4935150;29;20058;-77
2022/12/05 04:07:12;;;;;;;15.10;10.23;;;;;;;10.08;100.00;101006.22;4924025;29;20060;-77
2022/12/05 04:09:47;;;;;;;13.90;9.23;;;;;;;10.12;100.00;101006.50;4934526;29;20051;-77
2022/12/05 04:12:21;;;;;;;15.27;10.50;;;;;;;10.04;100.00;100991.41;4928621;29;20062;-77
2022/12/05 04:14:55;;;;;;;13.80;9.57;;;;;;;10.14;100.00;100983.28;4934712;29;20058;-77
2022/12/05 04:17:39;;;;;;;16.30;10.80;;;;;;;10.16;100.00;100969.34;4933825;29;20388;-76
2022/12/05 04:23:19;;;;;;;17.90;11.15;;;;;;;9.99;100.00;100973.09;4916692;29;20055;-77
2022/12/05 04:26:20;;;;;;;15.40;10.13;;;;;;;10.01;100.00;100984.56;4914997;29;20048;-76
2022/12/05 04:28:56;;;;;;;16.58;11.18;;;;;;;10.13;100.00;100989.84;4928358;29;20055;-77
2022/12/05 04:31:33;;;;;;;17.67;11.05;;;;;;;10.14;100.00;100993.38;4934166;29;20048;-77
2022/12/05 04:34:08;;;;;;;17.10;10.20;;;;;;;10.21;100.00;100978.38;4934360;29;20418;-77
2022/12/05 04:36:55;;;;;;;16.25;10.25;;;;;;;10.16;100.00;100986.56;4933589;29;20052;-77
2022/12/05 04:39:30;;;;;;;19.85;10.75;;;;;;;10.16;100.00;100980.28;4934742;29;20051;-77
2022/12/05 04:42:29;;;;;;;14.85;10.13;;;;;;;10.19;100.00;100975.09;4933810;29;20480;-77
2022/12/05 04:45:03;;;;;;;15.95;10.27;;;;;;;10.18;100.00;100976.16;4933717;29;20526;-77
2022/12/05 04:47:38;;;;;;;16.35;9.63;;;;;;;10.16;100.00;100980.28;4934883;29;20054;-77
2022/12/05 04:50:09;;;;;;;15.63;10.23;;;;;;;10.14;100.00;100977.81;4933515;29;20044;-77
2022/12/05 04:52:38;;;;;;;14.18;9.05;;;;;;;10.16;100.00;100981.09;4938671;29;20047;-77
2022/12/05 04:55:08;;;;;;;16.02;10.35;;;;;;;10.20;100.00;100984.94;4937925;29;20055;-77
2022/12/05 04:57:48;;;;;;;14.93;9.88;;;;;;;10.26;100.00;100972.09;4938794;29;20055;-76
2022/12/05 05:00:17;;;;;;;13.45;9.07;;;;;;;10.27;100.00;100976.47;4936677;29;20063;-76
2022/12/05 05:03:15;;;;;;;14.25;9.10;;;;;;;10.28;100.00;100974.56;4938297;29;20047;-76
2022/12/05 05:05:48;;;;;;;12.65;8.65;;;;;;;10.24;100.00;100987.13;4938354;29;20043;-77
2022/12/05 05:08:22;;;;;;;13.23;8.70;;;;;;;10.20;100.00;100995.03;4938322;29;20394;-77
2022/12/05 05:11:14;;;;;;;14.35;9.38;;;;;;;10.20;100.00;100998.59;4937767;29;20048;-77
2022/12/05 05:13:42;;;;;;;15.52;10.23;;;;;;;10.15;100.00;100986.81;4938508;29;20521;-77
2022/12/05 05:16:27;;;;;;;13.68;9.05;;;;;;;10.15;100.00;100989.53;4937246;29;20499;-77
2022/12/05 05:18:56;;;;;;;15.40;9.25;;;;;;;10.10;100.00;100990.34;4936955;29;20051;-77
2022/12/05 05:21:28;;;;;;;15.77;9.50;;;;;;;10.08;100.00;100996.09;4936792;29;20487;-79
2022/12/05 05:23:57;;;;;;;14.75;9.32;;;;;;;10.17;100.00;101003.78;4938561;29;20064;-77
2022/12/05 05:26:26;;;;;;;15.10;9.82;;;;;;;10.22;100.00;101001.88;4937895;29;20495;-77
2022/12/05 05:28:57;;;;;;;15.18;9.50;;;;;;;10.19;100.00;100994.25;4936951;29;20055;-77
2022/12/05 05:31:25;;;;;;;15.68;9.40;;;;;;;10.22;100.00;101001.88;4934702;29;20527;-76
2022/12/05 05:33:55;;;;;;;15.80;9.55;;;;;;;10.27;100.00;101003.81;4919661;29;20050;-76
2022/12/05 05:36:26;;;;;;;15.20;9.52;;;;;;;10.27;100.00;100997.53;4937652;29;20491;-76
2022/12/05 05:38:56;;;;;;;13.68;8.95;;;;;;;10.20;100.00;100998.59;4931814;29;20062;-76
2022/12/05 05:41:27;;;;;;;13.57;8.40;;;;;;;10.21;100.00;101002.16;4937849;29;20055;-76
2022/12/05 05:43:56;;;;;;;12.27;7.18;;;;;;;10.36;100.00;101004.13;4937210;29;20048;-76
2022/12/05 05:46:28;;;;;;;13.50;8.68;;;;;;;10.54;100.00;101013.81;4937648;29;20051;-75
2022/12/05 05:48:57;;;;;;;15.00;8.02;;;;;;;10.52;100.00;101005.06;4934712;29;20058;-76
2022/12/05 05:51:28;;;;;;;11.70;7.75;;;;;;;10.52;100.00;101009.69;4932779;29;20055;-76
2022/12/05 05:53:58;;;;;;;10.25;7.03;;;;;;;10.46;100.00;101015.16;4936477;29;20044;-76
2022/12/05 05:56:28;;;;;;;12.25;7.95;;;;;;;10.44;100.00;101020.06;4936370;29;20046;-76
2022/12/05 05:59:03;;;;;;;13.75;8.23;;;;;;;10.38;100.00;101015.63;4935755;29;20043;-77
2022/12/05 06:01:31;;;;;;;13.02;7.90;;;;;;;10.37;100.00;101003.06;4935477;29;20055;-76
2022/12/05 06:03:59;;;;;;;12.40;7.75;;;;;;;10.29;100.00;101006.28;4936371;29;20050;-76
2022/12/05 06:06:27;;;;;;;12.90;7.88;;;;;;;10.25;100.00;100999.69;4936938;29;20059;-76
2022/12/05 06:08:55;;;;;;;11.52;7.72;;;;;;;10.20;100.00;101001.34;4929771;29;20040;-75
2022/12/05 06:11:25;;;;;;;14.38;7.63;;;;;;;10.18;100.00;101002.69;4935392;29;20055;-77
2022/12/05 06:13:55;;;;;;;10.95;7.50;;;;;;;10.07;100.00;101008.13;4936238;29;20052;-77
2022/12/05 06:16:24;;;;;;;8.55;6.50;;;;;;;10.02;100.00;101013.56;4936327;29;20048;-76
2022/12/05 06:18:52;;;;;;;11.00;7.70;;;;;;;9.99;100.00;101013.25;4934506;29;20058;-77
2022/12/05 06:21:21;;;;;;;11.15;6.53;;;;;;;9.93;100.00;101013.22;4935916;29;20058;-76
2022/12/05 06:23:50;;;;;;;8.30;6.25;;;;;;;9.87;100.00;101016.22;4936509;29;20047;-76
2022/12/05 06:26:19;;;;;;;10.85;7.20;;;;;;;9.84;100.00;101014.84;4926552;29;20052;-75
2022/12/05 06:28:48;;;;;;;10.20;6.72;;;;;;;9.78;100.00;101008.50;4937230;29;20047;-75
2022/12/05 06:31:19;;;;;;;9.27;6.90;;;;;;;9.71;100.00;101010.66;4934623;29;20043;-76
2022/12/05 06:33:47;;;;;;;11.45;7.20;;;;;;;9.69;100.00;101015.56;4936905;29;20048;-75
2022/12/05 06:36:19;;;;;;;11.23;7.60;;;;;;;9.62;100.00;101026.72;4936810;29;20510;-77
2022/12/05 06:38:47;;;;;;;11.55;7.57;;;;;;;9.63;100.00;101017.41;4936930;29;20052;-75
2022/12/05 06:41:18;;;;;;;10.60;7.28;;;;;;;9.66;100.00;101016.91;4936058;29;20384;-75
2022/12/05 06:43:46;;;;;;;11.88;7.45;;;;;;;9.63;100.00;101020.16;4936484;29;20510;-76
2022/12/05 06:46:15;;;;;;;11.65;8.07;;;;;;;9.64;100.00;101023.72;4935940;29;20052;-76
2022/12/05 06:48:43;;;;;;;11.50;7.78;;;;;;;9.67;100.00;101029.47;4935487;29;20051;-77
2022/12/05 06:51:13;;;;;;;13.70;7.43;;;;;;;9.54;100.00;101029.94;4936564;29;20048;-77
2022/12/05 06:53:42;;;;;;;13.23;8.13;;;;;;;9.48;100.00;101036.44;4936664;29;20039;-77
2022/12/05 06:56:13;;;;;;;14.02;8.20;;;;;;;9.41;100.00;101034.75;4936535;29;20048;-77
2022/12/05 06:58:43;;;;;;;11.88;8.65;;;;;;;9.37;100.00;101039.09;4936571;29;20372;-77
2022/12/05 07:01:42;;;;;;;11.93;8.07;;;;;;;9.38;100.00;101039.91;4936286;29;20078;-76
2022/12/05 07:04:19;;;;;;;13.98;8.60;;;;;;;9.45;100.00;101042.44;4936263;29;20048;-76
2022/12/05 07:06:50;;;;;;;12.52;8.30;;;;;;;9.51;100.00;101044.09;4936766;29;20064;-77
2022/12/05 07:09:20;;;;;;;13.38;8.23;;;;;;;9.61;100.00;101043.34;4936349;29;20043;-77
2022/12/05 07:11:51;;;;;;;13.38;9.05;;;;;;;9.63;100.00;101036.56;4925530;29;20059;-77
2022/12/05 07:14:27;;;;;;;15.25;9.02;;;;;;;9.67;100.00;101031.38;4916756;29;20044;-76
2022/12/05 07:17:22;;;;;;;15.43;8.77;;;;;;;9.76;100.00;101038.00;4941735;28;20060;-77
2022/12/05 07:20:19;;;;;;;19.38;9.30;;;;;;;9.86;100.00;101029.06;4917085;29;20036;-76
2022/12/05 07:23:13;;;;;;;26.10;10.82;;;;;;;9.91;100.00;101034.56;4918681;29;20060;-77
2022/12/05 07:25:44;;;;;;;19.55;9.63;;;;;;;9.96;100.00;101033.75;4921387;29;20044;-77
2022/12/05 07:28:19;;;;;;;19.35;9.60;;;;;;;10.07;100.00;101034.66;4930419;29;20064;-77
2022/12/05 07:30:48;;;;;;;15.10;8.50;;;;;;;10.08;100.00;101033.56;4921872;29;20051;-77
2022/12/05 07:33:18;;;;;;;12.23;8.95;;;;;;;10.35;100.00;101038.03;4924890;29;20036;-77
2022/12/05 07:35:49;;;;;;;13.90;8.35;;;;;;;10.36;100.00;101050.63;4926600;29;20052;-77
2022/12/05 07:38:21;;;;;;;13.52;8.40;;;;;;;10.60;100.00;101044.72;4920512;29;20072;-77
2022/12/05 07:40:52;;;;;;;12.00;8.15;;;;;;;10.54;100.00;101051.28;4920125;29;20060;-77
2022/12/05 07:43:21;;;;;;;15.38;8.75;;;;;;;10.70;100.00;101047.50;4931663;29;20052;-78
2022/12/05 07:45:49;;;;;;;12.32;7.43;;;;;;;10.69;100.00;101045.88;4915346;29;20040;-77
2022/12/05 07:48:20;;;;;;;11.07;7.47;;;;;;;10.64;100.00;101050.53;4917755;29;20051;-77
2022/12/05 07:50:51;;;;;;;11.60;7.70;;;;;;;10.71;100.00;101040.13;4934893;28;20052;-77
2022/12/05 07:53:21;;;;;;;10.90;7.20;;;;;;;10.74;100.00;101056.84;4919109;29;20300;-78
2022/12/05 07:55:52;;;;;;;11.40;7.43;;;;;;;10.67;100.00;101053.53;4919876;29;20059;-75
2022/12/05 07:58:28;;;;;;;13.82;8.48;;;;;;;10.67;100.00;101061.75;4934287;29;20043;-76
2022/12/05 08:01:04;;;;;;;11.15;7.25;;;;;;;10.64;100.00;101064.22;4918501;29;20044;-77
2022/12/05 08:03:36;;;;;;;10.77;7.43;;;;;;;10.62;100.00;101065.28;4933442;28;20499;-77
2022/12/05 08:06:10;;;;;;;13.05;7.88;;;;;;;10.70;100.00;101050.25;4932467;29;20044;-79
2022/12/05 08:08:39;;;;;;;13.10;7.97;;;;;;;10.83;100.00;101061.78;4930948;28;20060;-80
2022/12/05 08:11:14;;;;;;;13.20;8.20;;;;;;;10.71;100.00;101057.38;4918687;29;20055;-78
2022/12/05 08:13:42;;;;;;;;;;;;;;;10.83;100.00;101059.88;4916519;29;20063;-78
2022/12/05 08:16:12;;;;;;;14.82;9.23;;;;;;;10.82;100.00;101060.97;4915715;29;20401;-78
2022/12/05 08:18:41;;;;;;;17.35;8.35;;;;;;;10.74;100.00;101067.78;4915894;29;20048;-78
2022/12/05 08:21:11;;;;;;;11.45;7.43;;;;;;;10.85;100.00;101070.56;4928535;29;20523;-78
2022/12/05 08:23:40;;;;;;;16.30;7.40;;;;;;;10.86;100.00;101069.47;4916093;29;20059;-78
2022/12/05 08:26:16;;;;;;;9.35;7.00;;;;;;;10.90;100.00;101062.34;4915076;29;20048;-78
2022/12/05 08:28:44;;;;;;;14.60;7.47;;;;;;;10.91;100.00;101069.47;4917250;29;20063;-78
2022/12/05 08:31:15;;;;;;;11.75;7.38;;;;;;;10.78;100.00;101072.72;4926225;29;20052;-78
2022/12/05 08:33:46;;;;;;;11.55;7.25;;;;;;;10.88;100.00;101062.63;4933347;29;20108;-78
2022/12/05 08:36:19;;;;;;;11.05;7.22;;;;;;;11.00;100.00;101056.88;4923424;29;20495;-78
2022/12/05 08:38:49;;;;;;;11.00;7.35;;;;;;;11.19;100.00;101050.88;4916158;29;20052;-78
2022/12/05 08:41:20;;;;;;;12.63;8.02;;;;;;;11.06;100.00;101057.75;4916634;29;20055;-78
2022/12/05 08:43:50;;;;;;;12.13;7.82;;;;;;;11.22;100.00;101042.13;4916934;29;20605;-79
2022/12/05 08:46:21;;;;;;;10.30;6.05;;;;;;;11.21;100.00;101054.19;4917694;29;20055;-78
2022/12/05 08:48:51;;;;;;;11.38;6.88;;;;;;;11.38;100.00;101058.56;4929968;29;20052;-79
2022/12/05 08:51:20;;;;;;;11.95;7.30;;;;;;;11.43;100.00;101058.56;4915418;29;20063;-78
2022/12/05 08:53:52;;;;;;;9.48;6.63;;;;;;;11.46;100.00;101044.34;4929527;29;20059;-79
2022/12/05 08:56:22;;;;;;;8.52;5.95;;;;;;;11.51;100.00;101054.47;4915596;29;20048;-78
2022/12/05 08:58:56;;;;;;;8.18;5.63;;;;;;;11.55;100.00;101048.16;4915959;29;20040;-78
2022/12/05 09:01:37;;;;;;;9.10;5.45;;;;;;;11.58;100.00;101067.91;4915258;29;20056;-78
2022/12/05 09:04:08;;;;;;;6.45;5.20;;;;;;;11.58;100.00;101067.91;4933513;28;20055;-78
2022/12/05 09:06:40;;;;;;;8.50;6.05;;;;;;;11.54;100.00;101073.13;4917630;29;20052;-78
2022/12/05 09:09:10;;;;;;;7.22;5.25;;;;;;;11.61;100.00;101081.03;4943074;28;20055;-79
2022/12/05 09:11:49;;;;;;;7.85;5.70;;;;;;;11.59;100.00;101077.78;4929483;29;20060;-78
2022/12/05 09:14:21;;;;;;;13.63;5.80;;;;;;;11.54;100.00;101076.66;4926979;29;20056;-79
2022/12/05 09:16:50;;;;;;;8.57;5.80;;;;;;;11.58;100.00;101076.13;4915296;29;20050;-80
2022/12/05 09:19:20;;;;;;;9.52;6.47;;;;;;;11.73;100.00;101081.59;4921752;29;20137;-81
2022/12/05 09:21:48;;;;;;;9.68;6.40;;;;;;;11.76;100.00;101075.56;4919118;29;20372;-79
2022/12/05 09:24:16;;;;;;;10.98;6.93;;;;;;;11.66;100.00;101070.09;4922153;29;20514;-78
2022/12/05 09:26:49;;;;;;;9.55;7.07;;;;;;;11.69;100.00;101077.78;4925951;29;20398;-77
2022/12/05 09:29:19;;;;;;;12.27;7.22;;;;;;;11.79;100.00;101080.47;4936479;29;20427;-77
2022/12/05 09:31:50;;;;;;;13.90;9.20;;;;;;;11.69;100.00;101067.59;4930045;29;20071;-77
2022/12/05 09:34:19;;;;;;;13.43;9.15;;;;;;;11.77;100.00;101063.50;4915732;29;20407;-77
2022/12/05 09:36:50;;;;;;;13.13;9.10;;;;;;;11.66;100.00;101064.59;4915846;29;20052;-77
2022/12/05 09:39:43;;;;;;;15.40;9.07;;;;;;;11.81;100.00;101066.50;4922239;29;20047;-77
2022/12/05 09:42:33;;;;;;;14.43;8.73;;;;;;;11.82;100.00;101049.78;4919467;29;20048;-77
2022/12/05 09:45:10;;;;;;;14.32;8.95;;;;;;;11.73;100.00;101034.16;4919558;29;20059;-77
2022/12/05 09:47:59;;;;;;;14.82;8.25;;;;;;;11.88;100.00;101036.06;4919507;29;20055;-77
2022/12/05 09:50:34;;;;;;;15.95;9.15;;;;;;;11.91;100.00;101028.09;4923288;29;20067;-77
2022/12/05 09:53:05;;;;;;;13.90;9.40;;;;;;;12.00;100.00;101033.84;4934403;29;20052;-77
2022/12/05 09:56:03;;;;;;;17.73;9.10;;;;;;;12.01;100.00;101024.50;4935944;28;20048;-76
2022/12/05 09:59:05;;;;;;;14.80;8.43;;;;;;;11.92;100.00;101026.16;4919498;29;20048;-77
2022/12/05 10:01:59;;;;;;;12.27;8.23;;;;;;;12.02;100.00;101039.84;4928433;29;20533;-77
2022/12/05 10:04:45;;;;;;;12.55;8.25;;;;;;;12.21;100.00;101031.03;4931991;29;20404;-78
2022/12/05 10:07:20;;;;;;;15.98;8.50;;;;;;;12.27;100.00;101040.91;4918113;29;20059;-77
2022/12/05 10:10:47;;;;;;;10.68;7.15;;;;;;;12.34;100.00;101030.47;4929492;29;20058;-77
2022/12/05 10:13:57;;;;;;;15.77;9.05;;;;;;;12.40;99.80;101019.44;4918570;29;20503;-77
2022/12/05 10:16:47;;;;;;;13.57;8.05;;;;;;;12.32;100.00;101035.41;4934834;29;20047;-78
2022/12/05 10:19:34;;;;;;;12.13;7.93;;;;;;;12.28;100.00;101025.28;4918005;29;20060;-77
2022/12/05 10:22:47;;;;;;;11.32;8.07;;;;;;;12.21;100.00;101026.38;4914037;29;20052;-77
2022/12/05 10:25:27;;;;;;;10.70;7.05;;;;;;;12.29;100.00;101033.22;4938975;28;20422;-77
2022/12/05 10:28:17;;;;;;;11.40;6.53;;;;;;;12.16;99.54;101037.38;4923886;29;20052;-77
2022/12/05 10:30:56;;;;;;;9.60;6.50;;;;;;;11.99;99.02;101045.91;4925701;29;20048;-77
2022/12/05 10:34:18;;;;;;;10.82;7.07;;;;;;;11.99;99.94;101051.41;4917759;29;20415;-77
2022/12/05 10:37:05;;;;;;;11.70;7.13;;;;;;;11.93;100.00;101030.56;4916554;29;20044;-77
2022/12/05 10:39:48;;;;;;;15.63;8.30;;;;;;;11.86;100.00;101022.63;4930011;29;20048;-77
2022/12/05 10:42:35;;;;;;;11.88;7.75;;;;;;;11.91;100.00;101024.53;4943896;28;20055;-77
2022/12/05 10:45:19;;;;;;;15.73;8.25;;;;;;;11.86;100.00;101028.09;4917816;29;20056;-77
2022/12/05 10:47:59;;;;;;;12.20;6.93;;;;;;;12.01;100.00;101021.75;4916834;29;20056;-77
2022/12/05 10:50:56;;;;;;;11.52;7.25;;;;;;;12.17;100.00;101019.00;4931968;28;20381;-77
2022/12/05 10:53:39;;;;;;;11.70;7.05;;;;;;;12.35;100.00;101015.63;4919263;29;20380;-76
2022/12/05 10:56:49;;;;;;;11.25;7.55;;;;;;;12.48;100.00;101013.38;4924702;29;20058;-76
2022/12/05 10:59:24;;;;;;;14.80;8.35;;;;;;;12.77;99.16;101004.44;4930285;29;20044;-76
2022/12/05 11:01:58;;;;;;;12.90;8.27;;;;;;;13.10;98.98;101006.69;4918290;29;20056;-76
2022/12/05 11:04:42;;;;;;;13.23;7.93;;;;;;;13.39;97.02;100983.91;4925674;29;20043;-76
2022/12/05 11:07:26;;;;;;;12.98;7.65;;;;;;;13.66;95.91;100977.91;4920146;29;20041;-75
2022/12/05 11:10:21;;;;;;;10.98;7.18;;;;;;;13.78;93.80;100982.19;4916963;29;20063;-76
2022/12/05 11:12:56;;;;;;;12.45;7.55;;;;;;;13.76;93.30;100973.38;4927962;29;20054;-76
2022/12/05 11:15:28;;;;;;;11.35;7.10;;;;;;;13.41;93.39;100967.94;4918165;29;20044;-74
2022/12/05 11:18:16;;;;;;;9.02;6.68;;;;;;;13.08;94.75;100968.50;4941995;29;20067;-76
2022/12/05 11:20:44;;;;;;;11.00;6.85;;;;;;;12.90;96.36;100959.00;4916969;29;20059;-76
2022/12/05 11:23:29;;;;;;;9.30;6.60;;;;;;;12.96;96.50;100959.81;4917972;29;20048;-75
2022/12/05 11:25:58;;;;;;;11.07;6.90;;;;;;;13.13;96.13;100965.72;4926316;29;20482;-75
2022/12/05 11:28:35;;;;;;;7.82;5.63;;;;;;;12.81;96.88;100953.31;4919855;29;20056;-76
2022/12/05 11:31:24;;;;;;;9.77;6.55;;;;;;;12.93;97.57;100957.63;4916606;29;20078;-76
2022/12/05 11:34:18;;;;;;;9.02;6.88;;;;;;;12.61;98.00;100943.31;4916514;29;20044;-76
2022/12/05 11:36:55;;;;;;;8.73;6.65;;;;;;;12.77;98.80;100955.00;4916550;29;20062;-76
2022/12/05 11:39:24;;;;;;;11.43;7.05;;;;;;;12.96;97.75;100965.31;4916539;29;20048;-76
2022/12/05 11:42:15;;;;;;;10.45;6.95;;;;;;;12.99;95.97;100948.22;4916345;29;20063;-77
2022/12/05 11:44:43;;;;;;;8.10;6.35;;;;;;;12.88;96.78;100955.75;4927696;29;20048;-76
2022/12/05 11:47:23;;;;;;;10.70;6.65;;;;;;;13.10;97.04;100947.03;4935380;29;20048;-77
2022/12/05 11:50:14;;;;;;;11.30;6.25;;;;;;;13.29;96.56;100938.91;4935062;29;20063;-76
2022/12/05 11:52:56;;;;;;;11.77;6.65;;;;;;;13.47;98.51;100928.31;4935438;29;20058;-77